Time;durP1;ratioP1;P1;durP2;ratioP2;P2;SDS_P1;SDS_P2;PMS_P1;PMS_P2;Temp;Humidity;BMP_temperature;BMP_pressure;BME280_temperature;BME280_humidity;BME280_pressure;Samples;Min_cycle;Max_cycle;Signal;HPM_P1;HPM_P2
2023/01/25 00:02:00;;;;;;;4.20;3.42;;;;;;;16.86;47.22;103885.22;4830197;29;20046;-78
2023/01/25 00:04:25;;;;;;;4.65;3.40;;;;;;;16.85;47.14;103881.75;4845396;29;20382;-78
2023/01/25 00:06:51;;;;;;;3.92;3.22;;;;;;;16.87;47.14;103881.78;4830192;29;20046;-78
2023/01/25 00:09:17;;;;;;;3.55;3.17;;;;;;;16.88;47.01;103864.50;4845876;29;20061;-78
2023/01/25 00:11:43;;;;;;;4.50;3.42;;;;;;;16.88;47.17;103867.97;4845284;29;20041;-78
2023/01/25 00:14:10;;;;;;;3.47;3.17;;;;;;;16.89;47.11;103861.94;4845268;29;20042;-78
2023/01/25 00:16:36;;;;;;;3.33;3.03;;;;;;;16.89;47.01;103861.03;4846477;29;20042;-78
2023/01/25 00:19:02;;;;;;;3.75;3.35;;;;;;;16.90;47.17;103863.72;4814833;29;20056;-79
2023/01/25 00:21:27;;;;;;;3.75;3.15;;;;;;;16.89;47.32;103853.25;4814846;29;20124;-78
2023/01/25 00:23:53;;;;;;;5.60;3.30;;;;;;;16.89;47.22;103855.84;4817331;29;20389;-79
2023/01/25 00:26:18;;;;;;;3.63;3.22;;;;;;;16.88;47.31;103849.75;4828201;29;20049;-78
2023/01/25 00:28:54;;;;;;;4.03;3.40;;;;;;;16.88;47.08;103851.47;4829827;29;20042;-79
2023/01/25 00:31:32;;;;;;;3.70;3.10;;;;;;;16.88;47.20;103846.28;4861112;29;20070;-79
2023/01/25 00:34:28;;;;;;;3.78;3.40;;;;;;;16.88;47.19;103851.47;4843166;29;20040;-79
2023/01/25 00:37:01;;;;;;;3.55;3.10;;;;;;;16.86;47.14;103844.50;4843614;29;20041;-79
2023/01/25 00:39:27;;;;;;;3.85;3.20;;;;;;;16.86;47.02;103841.00;4840135;29;20060;-78
2023/01/25 00:41:52;;;;;;;4.15;3.25;;;;;;;16.85;47.16;103845.31;4833514;29;20426;-78
2023/01/25 00:44:18;;;;;;;3.80;3.40;;;;;;;16.84;47.15;103834.84;4832373;29;20393;-78
2023/01/25 00:46:43;;;;;;;3.72;3.30;;;;;;;16.86;47.14;103838.41;4831828;29;20046;-78
2023/01/25 00:49:21;;;;;;;3.50;3.20;;;;;;;16.85;47.04;103834.00;4832406;29;20132;-78
2023/01/25 00:51:47;;;;;;;3.63;3.33;;;;;;;16.85;47.38;103832.31;4831969;29;20062;-79
2023/01/25 00:54:12;;;;;;;3.72;3.35;;;;;;;16.84;47.01;103821.84;4816445;29;20144;-78
2023/01/25 00:56:38;;;;;;;4.20;3.55;;;;;;;16.83;47.35;103827.84;4831350;29;20034;-78
2023/01/25 00:59:03;;;;;;;3.38;3.08;;;;;;;16.83;47.15;103835.66;4831329;29;20553;-78
2023/01/25 01:01:28;;;;;;;3.50;3.13;;;;;;;16.83;47.29;103838.25;4815751;29;20086;-78
2023/01/25 01:03:54;;;;;;;4.07;3.45;;;;;;;16.82;47.19;103832.19;4815369;29;20038;-78
2023/01/25 01:06:19;;;;;;;3.80;3.40;;;;;;;16.82;47.29;103834.78;4845997;29;20367;-78
2023/01/25 01:08:45;;;;;;;3.63;3.22;;;;;;;16.82;47.10;103833.91;4830887;29;20072;-78
2023/01/25 01:11:11;;;;;;;4.00;3.60;;;;;;;16.82;47.16;103828.69;4815018;29;20100;-79
2023/01/25 01:13:38;;;;;;;3.85;3.05;;;;;;;16.83;47.24;103825.25;4814723;29;20044;-78
2023/01/25 01:16:10;;;;;;;3.63;3.33;;;;;;;16.83;47.27;103820.97;4814839;29;20439;-78
2023/01/25 01:18:38;;;;;;;3.50;3.20;;;;;;;16.84;47.63;103819.25;4827445;29;20058;-78
2023/01/25 01:21:04;;;;;;;3.25;2.95;;;;;;;16.84;47.42;103816.66;4844895;29;20037;-78
2023/01/25 01:23:31;;;;;;;3.88;3.47;;;;;;;16.84;47.27;103817.53;4844275;29;20038;-78
2023/01/25 01:25:59;;;;;;;3.67;3.38;;;;;;;16.85;47.31;103814.13;4844665;29;20485;-77
2023/01/25 01:28:26;;;;;;;3.47;3.17;;;;;;;16.85;47.16;103810.59;4843872;29;20042;-79
2023/01/25 01:30:52;;;;;;;3.78;3.42;;;;;;;16.85;47.11;103813.19;4859242;29;20541;-77
2023/01/25 01:33:17;;;;;;;3.90;3.42;;;;;;;16.85;47.39;103811.50;4828771;29;20140;-78
2023/01/25 01:35:45;;;;;;;3.47;3.17;;;;;;;16.86;47.31;103813.28;4843663;29;20129;-78
2023/01/25 01:38:11;;;;;;;3.25;2.90;;;;;;;16.86;47.28;103815.88;4843122;29;20038;-79
2023/01/25 01:40:36;;;;;;;3.55;3.25;;;;;;;16.86;47.64;103813.28;4828418;29;20413;-78
2023/01/25 01:43:05;;;;;;;3.72;3.42;;;;;;;16.86;47.12;103808.06;4828320;29;20050;-77
2023/01/25 01:45:43;;;;;;;3.88;3.42;;;;;;;16.86;47.27;103812.41;4843381;29;20076;-78
2023/01/25 01:48:17;;;;;;;3.67;3.28;;;;;;;16.87;47.21;103803.75;4843536;29;20137;-78
2023/01/25 01:50:43;;;;;;;3.45;3.08;;;;;;;16.85;47.22;103806.31;4843638;29;20037;-78
2023/01/25 01:53:09;;;;;;;3.60;3.28;;;;;;;16.85;47.68;103811.50;4843371;29;20401;-78
2023/01/25 01:55:35;;;;;;;3.60;3.30;;;;;;;16.84;47.40;103811.44;4828244;29;20053;-77
2023/01/25 01:58:02;;;;;;;3.65;3.35;;;;;;;16.83;47.22;103794.97;4843667;29;20111;-78
2023/01/25 02:00:31;;;;;;;3.72;3.42;;;;;;;16.83;47.38;103802.75;4843489;29;20061;-78
2023/01/25 02:02:57;;;;;;;3.70;3.30;;;;;;;16.82;47.48;103806.16;4843195;29;20045;-78
2023/01/25 02:05:35;;;;;;;3.83;3.42;;;;;;;16.82;47.28;103806.16;4843202;29;20132;-78
2023/01/25 02:08:04;;;;;;;4.15;3.42;;;;;;;16.82;47.11;103797.50;4843081;29;20125;-78
2023/01/25 02:10:29;;;;;;;3.70;3.22;;;;;;;16.81;47.29;103801.81;4843388;29;20038;-78
2023/01/25 02:12:57;;;;;;;3.50;3.13;;;;;;;16.81;47.71;103801.81;4843156;29;20378;-78
2023/01/25 02:15:26;;;;;;;3.40;3.10;;;;;;;16.80;47.49;103794.81;4843014;29;20053;-78
2023/01/25 02:17:52;;;;;;;3.55;3.25;;;;;;;16.81;47.59;103800.91;4842866;29;20054;-78
2023/01/25 02:20:27;;;;;;;3.90;3.50;;;;;;;16.80;47.31;103791.34;4843101;29;20585;-78
2023/01/25 02:23:02;;;;;;;4.00;3.40;;;;;;;16.80;47.29;103806.94;4842730;29;20077;-78
2023/01/25 02:25:28;;;;;;;3.60;3.17;;;;;;;16.79;47.60;103795.63;4842912;29;20037;-78
2023/01/25 02:28:00;;;;;;;3.50;3.20;;;;;;;16.79;47.48;103792.13;4842858;29;20041;-79
2023/01/25 02:30:26;;;;;;;3.70;3.40;;;;;;;16.78;47.46;103779.94;4842849;29;20030;-78
2023/01/25 02:32:51;;;;;;;3.83;3.30;;;;;;;16.78;47.33;103785.16;4827582;29;20038;-78
2023/01/25 02:35:22;;;;;;;4.15;3.40;;;;;;;16.78;47.51;103774.75;4843130;29;20046;-78
2023/01/25 02:37:49;;;;;;;3.92;3.53;;;;;;;16.78;47.69;103778.22;4843055;29;20069;-78
2023/01/25 02:40:16;;;;;;;3.42;3.13;;;;;;;16.79;47.51;103772.22;4827893;29;20065;-78
2023/01/25 02:42:45;;;;;;;3.78;3.35;;;;;;;16.80;47.51;103775.72;4828094;29;20073;-78
2023/01/25 02:45:15;;;;;;;3.45;3.05;;;;;;;16.79;47.65;103767.00;4842851;29;20041;-78
2023/01/25 02:47:40;;;;;;;3.75;3.40;;;;;;;16.80;47.61;103768.81;4842260;29;20485;-78
2023/01/25 02:50:06;;;;;;;3.42;3.10;;;;;;;16.82;47.66;103768.88;4842657;29;20056;-77
2023/01/25 02:52:32;;;;;;;3.70;3.30;;;;;;;16.81;47.50;103764.47;4842635;29;20133;-78
2023/01/25 02:54:57;;;;;;;3.40;3.10;;;;;;;16.81;47.42;103768.00;4827728;29;20137;-78
2023/01/25 02:57:22;;;;;;;4.38;3.30;;;;;;;16.81;47.66;103762.78;4827375;29;20034;-78
2023/01/25 02:59:48;;;;;;;3.33;3.03;;;;;;;16.82;47.57;103759.34;4843655;29;20408;-78
2023/01/25 03:02:13;;;;;;;3.15;2.85;;;;;;;16.82;47.28;103758.47;4842430;29;20122;-78
2023/01/25 03:04:39;;;;;;;3.15;2.85;;;;;;;16.83;47.64;103761.16;4827429;29;20041;-78
2023/01/25 03:07:04;;;;;;;3.30;3.00;;;;;;;16.83;47.58;103758.53;4827432;29;20074;-79
2023/01/25 03:09:29;;;;;;;3.33;3.03;;;;;;;16.84;47.51;103756.81;4842830;29;20045;-79
2023/01/25 03:11:57;;;;;;;3.63;3.33;;;;;;;16.83;47.49;103752.44;4848091;29;20409;-79
2023/01/25 03:14:23;;;;;;;3.55;3.25;;;;;;;16.82;47.42;103758.47;4840981;29;20071;-79
2023/01/25 03:16:48;;;;;;;3.70;3.17;;;;;;;16.83;47.55;103749.81;4857194;29;20050;-79
2023/01/25 03:19:14;;;;;;;4.03;3.45;;;;;;;16.81;47.54;103748.88;4839819;29;20026;-78
2023/01/25 03:21:39;;;;;;;3.25;2.95;;;;;;;16.82;47.58;103742.88;4847994;29;20038;-78
2023/01/25 03:24:05;;;;;;;3.10;2.80;;;;;;;16.80;47.50;103750.59;4814267;29;20057;-78
2023/01/25 03:27:09;;;;;;;3.40;3.08;;;;;;;16.80;47.60;103752.31;4828797;29;20038;-78
2023/01/25 03:29:16;;;;;;;3.22;2.92;;;;;;;16.79;47.48;103751.41;4831444;29;20458;-78
2023/01/25 03:31:41;;;;;;;4.05;3.50;;;;;;;16.78;47.63;103752.22;4828456;29;20125;-78
2023/01/25 03:34:07;;;;;;;3.35;3.03;;;;;;;16.78;47.70;103741.81;4828313;29;20486;-78
2023/01/25 03:36:32;;;;;;;3.70;3.38;;;;;;;16.78;47.39;103747.00;4812879;29;20041;-78
2023/01/25 03:38:57;;;;;;;3.17;2.88;;;;;;;16.77;47.63;103744.38;4812630;29;20045;-78
2023/01/25 03:41:23;;;;;;;3.60;2.95;;;;;;;16.77;47.78;103731.38;4827573;29;20037;-78
2023/01/25 03:43:48;;;;;;;3.30;3.00;;;;;;;16.75;47.49;103733.91;4827315;29;20077;-78
2023/01/25 03:46:13;;;;;;;3.85;3.45;;;;;;;16.76;47.76;103733.06;4812774;29;20066;-78
2023/01/25 03:48:39;;;;;;;3.25;2.95;;;;;;;16.74;47.62;103726.91;4812572;29;20485;-78
2023/01/25 03:51:04;;;;;;;3.30;3.00;;;;;;;16.75;47.70;103720.03;4812195;29;20100;-78
2023/01/25 03:53:30;;;;;;;3.22;2.92;;;;;;;16.74;47.48;103718.22;4827511;29;20042;-79
2023/01/25 03:56:00;;;;;;;3.58;3.28;;;;;;;16.74;47.58;103713.91;4842434;29;20037;-78
2023/01/25 03:58:26;;;;;;;3.80;3.40;;;;;;;16.75;47.47;103717.41;4826952;29;20045;-78
2023/01/25 04:00:54;;;;;;;3.70;3.20;;;;;;;16.75;47.57;103714.81;4828998;29;20038;-78
2023/01/25 04:03:20;;;;;;;3.75;3.35;;;;;;;16.75;47.58;103717.41;4830092;29;20048;-78
2023/01/25 04:05:46;;;;;;;3.42;3.00;;;;;;;16.75;47.62;103707.03;4845365;29;20129;-78
2023/01/25 04:08:11;;;;;;;3.70;3.17;;;;;;;16.76;47.75;103699.25;4815668;29;20042;-78
2023/01/25 04:10:37;;;;;;;3.65;3.35;;;;;;;16.77;47.54;103702.78;4846484;29;20053;-78
2023/01/25 04:13:02;;;;;;;3.20;2.90;;;;;;;16.76;47.62;103694.06;4830772;29;20044;-78
2023/01/25 04:15:28;;;;;;;3.28;2.92;;;;;;;16.77;47.63;103692.38;4829957;29;20512;-78
2023/01/25 04:17:53;;;;;;;3.50;3.05;;;;;;;16.77;47.68;103684.56;4836543;29;20056;-78
2023/01/25 04:20:18;;;;;;;3.42;3.10;;;;;;;16.79;47.54;103688.13;4829730;29;20061;-78
2023/01/25 04:22:44;;;;;;;3.20;2.90;;;;;;;16.79;47.89;103682.91;4830607;29;20065;-78
2023/01/25 04:25:09;;;;;;;3.90;3.28;;;;;;;16.78;47.60;103683.72;4830614;29;20049;-78
2023/01/25 04:27:34;;;;;;;3.63;3.22;;;;;;;16.78;47.62;103675.91;4830059;29;20125;-78
2023/01/25 04:30:00;;;;;;;3.35;3.00;;;;;;;16.77;47.71;103681.97;4844897;29;20037;-78
2023/01/25 04:32:25;;;;;;;5.15;2.80;;;;;;;16.77;47.63;103677.63;4844959;29;20037;-78
2023/01/25 04:34:51;;;;;;;4.38;3.60;;;;;;;16.77;47.54;103687.16;4829474;29;20124;-78
2023/01/25 04:37:16;;;;;;;3.30;3.00;;;;;;;16.75;47.81;103678.41;4844936;29;20441;-78
2023/01/25 04:39:41;;;;;;;3.30;3.00;;;;;;;16.76;47.55;103685.38;4829167;29;20042;-78
2023/01/25 04:42:07;;;;;;;3.38;3.08;;;;;;;16.74;47.65;103687.03;4829358;29;20042;-78
2023/01/25 04:44:32;;;;;;;3.80;3.38;;;;;;;16.74;47.65;103684.41;4829216;29;20584;-78
2023/01/25 04:46:57;;;;;;;3.47;3.17;;;;;;;16.73;47.49;103683.53;4829036;29;20049;-78
2023/01/25 04:49:23;;;;;;;3.88;3.17;;;;;;;16.73;47.85;103683.53;4829317;29;20137;-79
2023/01/25 04:51:48;;;;;;;3.92;3.53;;;;;;;16.72;47.73;103675.69;4829272;29;20462;-78
2023/01/25 04:54:13;;;;;;;3.50;3.10;;;;;;;16.72;47.76;103678.28;4829321;29;20045;-78
2023/01/25 04:56:39;;;;;;;2.92;2.65;;;;;;;16.71;47.67;103676.50;4844962;29;20060;-79
2023/01/25 04:59:04;;;;;;;3.33;3.03;;;;;;;16.71;47.75;103680.00;4830443;29;20042;-78
2023/01/25 05:01:32;;;;;;;3.40;3.00;;;;;;;16.70;47.69;103678.25;4829829;29;20045;-78
2023/01/25 05:03:58;;;;;;;3.63;3.33;;;;;;;16.70;47.81;103675.63;4860426;29;20042;-78
2023/01/25 05:06:23;;;;;;;4.13;3.42;;;;;;;16.70;47.74;103674.72;4844682;29;20125;-78
2023/01/25 05:08:48;;;;;;;3.80;3.22;;;;;;;16.70;47.66;103678.25;4844665;29;20042;-78
2023/01/25 05:11:14;;;;;;;3.20;2.90;;;;;;;16.71;47.73;103679.13;4844340;29;20041;-78
2023/01/25 05:13:39;;;;;;;3.20;2.90;;;;;;;16.71;47.68;103674.78;4829397;29;20481;-78
2023/01/25 05:16:05;;;;;;;3.45;3.13;;;;;;;16.72;47.53;103667.88;4844299;29;20386;-78
2023/01/25 05:18:30;;;;;;;3.28;2.95;;;;;;;16.71;47.76;103674.78;4844046;29;20076;-79
2023/01/25 05:20:55;;;;;;;3.50;2.95;;;;;;;16.73;47.70;103674.88;4828777;29;20511;-78
2023/01/25 05:23:21;;;;;;;3.15;2.85;;;;;;;16.74;47.62;103666.22;4843895;29;20049;-78
2023/01/25 05:28:31;;;;;;;3.13;2.83;;;;;;;16.74;47.49;103666.22;4845556;29;20137;-79
2023/01/25 05:30:56;;;;;;;3.70;3.15;;;;;;;16.74;47.74;103663.63;4844222;29;20125;-78
2023/01/25 05:33:22;;;;;;;3.25;2.95;;;;;;;16.74;47.79;103656.69;4843946;29;20469;-78
2023/01/25 05:35:47;;;;;;;3.10;2.80;;;;;;;16.75;47.45;103661.09;4843825;29;20178;-78
2023/01/25 05:38:12;;;;;;;3.33;3.03;;;;;;;16.75;47.74;103665.41;4843754;29;20042;-78
2023/01/25 05:40:38;;;;;;;5.25;2.95;;;;;;;16.75;47.78;103661.09;4844225;29;20048;-78
2023/01/25 05:43:03;;;;;;;3.67;2.80;;;;;;;16.76;47.64;103656.75;4828302;29;20045;-78
2023/01/25 05:45:29;;;;;;;3.33;3.00;;;;;;;16.75;47.80;103661.09;4828185;29;20132;-78
2023/01/25 05:47:56;;;;;;;3.50;3.00;;;;;;;16.76;47.71;103667.16;4843885;29;20053;-78
2023/01/25 05:50:23;;;;;;;3.15;2.85;;;;;;;16.76;47.84;103674.97;4843794;29;20061;-78
2023/01/25 05:52:48;;;;;;;2.97;2.67;;;;;;;16.77;47.80;103680.25;4843752;29;20046;-78
2023/01/25 05:55:14;;;;;;;3.30;3.00;;;;;;;16.77;47.67;103687.16;4836526;29;20050;-78
2023/01/25 05:57:39;;;;;;;3.10;2.80;;;;;;;16.78;47.61;103681.13;4838381;29;20101;-79
2023/01/25 06:00:06;;;;;;;3.33;3.03;;;;;;;16.77;47.55;103682.84;4852545;29;20037;-78
2023/01/25 06:02:32;;;;;;;2.97;2.70;;;;;;;16.78;47.78;103686.31;4834368;29;20034;-78
2023/01/25 06:04:57;;;;;;;4.70;2.80;;;;;;;16.77;47.72;103677.63;4831088;29;20482;-78
2023/01/25 06:07:23;;;;;;;3.20;2.90;;;;;;;16.78;47.58;103678.53;4845168;29;20038;-78
2023/01/25 06:09:48;;;;;;;3.10;2.80;;;;;;;16.78;47.74;103681.13;4844989;29;20038;-78
2023/01/25 06:12:15;;;;;;;4.68;2.88;;;;;;;16.78;47.76;103678.53;4829560;29;20059;-78
2023/01/25 06:14:41;;;;;;;3.38;3.00;;;;;;;16.78;47.66;103676.81;4845097;29;20045;-79
2023/01/25 06:17:06;;;;;;;3.15;2.80;;;;;;;16.78;47.77;103675.91;4845418;29;20050;-79
2023/01/25 06:19:32;;;;;;;3.47;2.85;;;;;;;16.77;47.76;103669.84;4846034;29;20038;-78
2023/01/25 06:21:57;;;;;;;3.75;2.90;;;;;;;16.79;47.84;103665.59;4828980;29;20089;-78
2023/01/25 06:24:23;;;;;;;3.35;2.90;;;;;;;16.79;47.86;103663.00;4812885;29;20132;-78
2023/01/25 06:26:48;;;;;;;41.60;14.73;;;;;;;16.82;47.97;103664.84;4814630;29;20075;-80
2023/01/25 06:29:13;;;;;;;39.58;13.40;;;;;;;16.83;47.64;103661.41;4829409;29;20044;-78
2023/01/25 06:31:39;;;;;;;37.63;14.18;;;;;;;16.84;47.86;103658.88;4814240;29;20042;-79
2023/01/25 06:34:05;;;;;;;26.20;11.68;;;;;;;16.85;47.89;103664.94;4831771;29;20138;-78
2023/01/25 06:36:31;;;;;;;29.27;11.98;;;;;;;16.85;47.89;103657.16;4813665;29;20044;-77
2023/01/25 06:38:57;;;;;;;29.98;9.98;;;;;;;16.86;48.07;103651.13;4828031;29;20129;-77
2023/01/25 06:41:22;;;;;;;20.70;9.80;;;;;;;16.88;47.92;103656.41;4827893;29;20125;-77
2023/01/25 06:43:51;;;;;;;21.00;9.88;;;;;;;16.89;47.94;103647.75;4812433;29;20405;-78
2023/01/25 06:46:17;;;;;;;23.05;8.90;;;;;;;16.87;48.02;103645.09;4827795;29;20041;-77
2023/01/25 06:48:43;;;;;;;21.77;9.20;;;;;;;16.87;47.87;103645.09;4812217;29;20068;-77
2023/01/25 06:51:13;;;;;;;19.58;9.48;;;;;;;16.87;48.08;103634.69;4827390;29;20553;-78
2023/01/25 06:53:40;;;;;;;16.65;7.97;;;;;;;16.88;48.23;103643.41;4827813;29;20076;-78
2023/01/25 06:56:09;;;;;;;18.17;8.10;;;;;;;16.87;47.91;103637.28;4827364;29;20044;-78
2023/01/25 06:58:35;;;;;;;17.67;7.50;;;;;;;16.87;48.11;103642.50;4827486;29;20041;-78
2023/01/25 07:01:06;;;;;;;19.60;8.10;;;;;;;16.87;48.15;103647.69;4827686;29;20034;-78
2023/01/25 07:03:32;;;;;;;15.40;7.35;;;;;;;16.88;48.09;103649.47;4827383;29;20401;-78
2023/01/25 07:06:04;;;;;;;15.77;7.13;;;;;;;16.88;48.31;103653.81;4827426;29;20049;-76
2023/01/25 07:08:30;;;;;;;14.35;7.18;;;;;;;16.88;48.30;103646.00;4827491;29;20098;-77
2023/01/25 07:10:58;;;;;;;12.93;7.15;;;;;;;16.88;48.57;103649.47;4827714;29;20454;-78
2023/01/25 07:13:24;;;;;;;12.63;6.75;;;;;;;16.89;48.27;103646.03;4827424;29;20083;-78
2023/01/25 07:15:58;;;;;;;16.15;6.93;;;;;;;16.89;48.24;103637.34;4812873;29;20053;-78
2023/01/25 07:18:25;;;;;;;12.48;6.80;;;;;;;16.89;48.18;103632.16;4835962;29;20053;-77
2023/01/25 07:20:51;;;;;;;13.77;7.03;;;;;;;16.89;48.23;103622.63;4857869;29;20397;-78
2023/01/25 07:23:18;;;;;;;11.75;6.68;;;;;;;16.89;48.42;103619.16;4827347;29;20049;-79
2023/01/25 07:25:47;;;;;;;13.00;6.43;;;;;;;16.87;48.58;103621.69;4843781;29;20034;-77
2023/01/25 07:28:13;;;;;;;13.32;6.55;;;;;;;16.88;48.40;103622.59;4842476;29;20041;-77
2023/01/25 07:30:39;;;;;;;12.13;6.22;;;;;;;16.88;48.38;103625.19;4827052;29;20045;-78
2023/01/25 07:33:05;;;;;;;14.95;6.95;;;;;;;16.88;48.18;103620.00;4842287;29;20509;-78
2023/01/25 07:35:31;;;;;;;11.63;6.43;;;;;;;16.88;48.30;103620.88;4844091;29;20049;-77
2023/01/25 07:37:56;;;;;;;12.20;6.07;;;;;;;16.87;48.38;103616.47;4846412;29;20038;-77
2023/01/25 07:40:24;;;;;;;10.25;5.88;;;;;;;16.88;48.37;103612.19;4846490;29;20045;-77
2023/01/25 07:42:50;;;;;;;12.65;6.35;;;;;;;16.88;48.18;103607.00;4846045;29;20042;-78
2023/01/25 07:45:15;;;;;;;9.90;5.95;;;;;;;16.89;48.45;103608.75;4847456;29;20045;-77
2023/01/25 07:47:41;;;;;;;11.02;6.20;;;;;;;16.91;48.28;103605.38;4845701;29;20046;-78
2023/01/25 07:50:07;;;;;;;10.27;5.60;;;;;;;16.91;48.31;103600.16;4845697;29;20046;-77
2023/01/25 07:52:32;;;;;;;10.57;6.15;;;;;;;16.90;48.28;103598.41;4845934;29;20065;-78
2023/01/25 07:54:58;;;;;;;9.35;5.70;;;;;;;16.89;48.22;103588.81;4830782;29;20077;-78
2023/01/25 07:57:24;;;;;;;12.00;5.75;;;;;;;16.89;48.46;103595.75;4830023;29;20038;-78
2023/01/25 07:59:49;;;;;;;8.85;5.47;;;;;;;16.87;48.23;103595.66;4830250;29;20041;-78
2023/01/25 08:02:15;;;;;;;9.18;5.57;;;;;;;16.87;48.19;103603.47;4845448;29;20136;-77
2023/01/25 08:04:41;;;;;;;11.30;5.70;;;;;;;16.87;48.38;103606.06;4861423;29;20125;-77
2023/01/25 08:07:07;;;;;;;8.85;5.75;;;;;;;16.85;48.23;103598.25;4853646;29;20022;-82
2023/01/25 08:09:32;;;;;;;11.48;5.72;;;;;;;16.85;48.48;103594.72;4865877;29;20126;-83
2023/01/25 08:11:58;;;;;;;7.72;5.38;;;;;;;16.85;48.51;103598.25;5280474;23;20051;-83
2023/01/25 08:17:13;;;;;;;9.20;5.05;;;;;;;16.84;48.18;103596.44;5274944;23;20068;-85
2023/01/25 08:19:38;;;;;;;7.43;5.00;;;;;;;16.84;48.38;103593.84;4865832;29;20037;-86
2023/01/25 08:22:06;;;;;;;8.02;4.95;;;;;;;16.84;48.30;103595.56;4870666;29;20040;-84
2023/01/25 08:24:32;;;;;;;7.38;5.15;;;;;;;16.84;48.03;103590.38;4867004;29;20029;-85
2023/01/25 08:26:58;;;;;;;8.13;4.82;;;;;;;16.84;48.28;103590.38;4866534;29;20044;-84
2023/01/25 08:29:26;;;;;;;8.88;5.15;;;;;;;16.82;48.30;103592.91;4864801;29;20033;-84
2023/01/25 08:31:53;;;;;;;8.15;4.70;;;;;;;16.83;48.14;103588.56;4880849;29;20044;-85
2023/01/25 08:34:18;;;;;;;7.50;5.10;;;;;;;16.83;48.35;103594.69;4865381;29;20029;-85
2023/01/25 08:36:44;;;;;;;7.07;4.97;;;;;;;16.83;48.41;103591.19;4867312;29;20029;-85
2023/01/25 08:39:11;;;;;;;6.53;4.68;;;;;;;16.82;48.18;103585.09;4884332;29;20044;-85
2023/01/25 08:41:37;;;;;;;7.90;4.78;;;;;;;16.83;48.23;103588.56;4867453;29;20033;-85
2023/01/25 08:44:06;;;;;;;7.35;4.60;;;;;;;16.83;48.05;103585.97;4866871;29;20041;-85
2023/01/25 08:46:33;;;;;;;7.10;5.10;;;;;;;16.83;48.21;103585.97;4866610;29;20033;-85
2023/01/25 08:49:00;;;;;;;6.85;4.68;;;;;;;16.82;48.24;103581.63;4854055;29;20057;-85
2023/01/25 08:51:27;;;;;;;7.80;4.70;;;;;;;16.84;48.25;103585.16;4853438;29;20052;-86
2023/01/25 08:53:53;;;;;;;6.50;4.30;;;;;;;16.83;48.18;103570.38;4864917;29;20048;-84
2023/01/25 08:56:19;;;;;;;6.55;4.47;;;;;;;16.83;48.47;103572.97;4870033;29;20061;-85
2023/01/25 08:58:47;;;;;;;6.93;4.57;;;;;;;16.82;48.22;103566.91;4865473;29;20025;-86
2023/01/25 09:01:14;;;;;;;6.65;4.80;;;;;;;16.83;48.21;103578.19;4866752;29;20037;-86
2023/01/25 09:03:45;;;;;;;6.88;4.47;;;;;;;16.83;47.88;103568.69;4866858;29;20068;-85
2023/01/25 09:06:11;;;;;;;6.53;4.50;;;;;;;16.82;48.27;103566.91;4864640;29;20041;-85
2023/01/25 09:08:38;;;;;;;6.20;4.57;;;;;;;16.83;48.17;103562.56;4863791;29;20041;-86
2023/01/25 09:11:09;;;;;;;6.72;4.28;;;;;;;16.83;48.09;103560.88;4881171;29;20053;-85
2023/01/25 09:13:35;;;;;;;6.30;4.20;;;;;;;16.83;48.02;103559.97;4885507;29;20045;-85
2023/01/25 09:16:06;;;;;;;6.80;4.38;;;;;;;16.83;48.17;103560.88;4865987;29;20501;-83
2023/01/25 09:18:32;;;;;;;5.85;4.50;;;;;;;16.82;48.23;103551.28;4879458;29;20073;-85
2023/01/25 09:20:59;;;;;;;5.25;4.35;;;;;;;16.83;47.96;103549.56;4878757;29;20038;-86
2023/01/25 09:23:25;;;;;;;5.75;4.32;;;;;;;16.84;48.26;103551.34;4864573;29;20040;-84
2023/01/25 09:26:00;;;;;;;4.63;4.03;;;;;;;16.84;48.04;103544.44;4854818;29;20037;-85
2023/01/25 09:28:28;;;;;;;5.18;4.18;;;;;;;16.85;48.21;103545.31;4868371;29;20070;-84
2023/01/25 09:31:03;;;;;;;5.70;4.10;;;;;;;16.82;47.92;103540.88;4864254;29;20145;-84
2023/01/25 09:33:34;;;;;;;5.32;3.95;;;;;;;16.85;48.20;103540.09;4861801;29;20572;-85
2023/01/25 09:36:00;;;;;;;5.80;4.47;;;;;;;16.84;47.98;103538.34;4858407;29;20033;-84
2023/01/25 09:38:26;;;;;;;6.20;4.20;;;;;;;16.83;47.93;103527.06;4861126;29;20093;-85
2023/01/25 09:41:03;;;;;;;5.45;4.13;;;;;;;16.85;48.11;103527.09;4863618;29;20034;-85
2023/01/25 09:43:38;;;;;;;4.80;4.00;;;;;;;16.84;47.86;103523.63;4864818;29;20093;-84
2023/01/25 09:46:23;;;;;;;5.63;3.85;;;;;;;16.84;47.85;103525.34;4863496;29;20100;-85
2023/01/25 09:49:09;;;;;;;5.35;4.07;;;;;;;16.83;48.02;103513.16;4862375;29;20042;-86
2023/01/25 10:02:02;;;;;;;5.38;3.97;;;;;;;16.85;47.83;103498.50;5394311;23;20049;-83
2023/01/25 10:04:41;;;;;;;5.22;3.85;;;;;;;16.84;48.05;103499.34;4886213;29;20033;-84
2023/01/25 10:07:30;;;;;;;5.20;4.38;;;;;;;16.84;47.96;103495.03;4870158;29;20040;-85
2023/01/25 10:10:01;;;;;;;5.30;3.97;;;;;;;16.85;47.85;103489.00;4886396;29;20028;-84
2023/01/25 10:12:35;;;;;;;5.78;4.68;;;;;;;16.85;47.82;103482.91;4886368;29;20021;-84
2023/01/25 10:15:00;;;;;;;;;;;;;;;16.85;47.93;103478.59;4870610;29;20021;-83
2023/01/25 10:17:38;;;;;;;4.60;3.95;;;;;;;16.85;47.73;103475.09;5122658;23;19975;-85
2023/01/25 10:20:13;;;;;;;5.25;4.40;;;;;;;16.85;47.71;103468.19;4875940;29;20034;-82
2023/01/25 10:22:51;;;;;;;5.00;4.07;;;;;;;16.85;47.75;103469.88;4881945;29;20097;-86
2023/01/25 10:25:20;;;;;;;5.07;4.20;;;;;;;16.86;48.01;103469.06;4866932;29;20037;-86
2023/01/25 10:27:55;;;;;;;5.00;4.28;;;;;;;16.86;48.00;103469.06;4879534;29;20061;-86
2023/01/25 10:30:27;;;;;;;4.97;4.07;;;;;;;16.85;47.79;103459.47;4865265;29;20033;-85
2023/01/25 10:32:59;;;;;;;4.70;4.18;;;;;;;16.85;47.81;103457.78;4880520;29;20060;-86
2023/01/25 10:35:31;;;;;;;4.97;4.45;;;;;;;16.86;47.71;103458.69;4880998;29;20048;-84
2023/01/25 10:38:14;;;;;;;5.22;4.07;;;;;;;16.86;47.84;103454.34;4880645;29;20037;-85
2023/01/25 10:40:49;;;;;;;4.68;4.15;;;;;;;16.87;47.86;103450.03;4877276;29;20029;-85
2023/01/25 10:43:20;;;;;;;6.93;4.30;;;;;;;16.85;47.91;103444.78;4877924;29;20041;-85
2023/01/25 10:45:47;;;;;;;4.68;4.15;;;;;;;16.86;48.00;103443.94;4877781;29;20025;-83
2023/01/25 10:48:34;;;;;;;5.20;4.45;;;;;;;16.86;47.60;103428.34;4884363;29;20095;-85
2023/01/25 10:51:00;;;;;;;5.18;4.50;;;;;;;16.87;47.85;103426.63;4881929;29;20033;-85
2023/01/25 10:53:29;;;;;;;4.85;4.30;;;;;;;16.88;47.98;103418.00;4882000;29;20049;-86
2023/01/25 10:56:17;;;;;;;5.30;4.72;;;;;;;16.88;47.94;103410.19;4882042;29;20056;-86
2023/01/25 10:58:46;;;;;;;5.47;4.68;;;;;;;16.88;47.80;103411.91;4866358;29;20035;-85
2023/01/25 11:01:30;;;;;;;5.32;4.18;;;;;;;16.87;47.79;103411.00;4880443;29;20044;-83
2023/01/25 11:03:55;;;;;;;;;;;;;;;16.88;47.82;103420.59;4876139;29;20033;-86
2023/01/25 11:06:34;;;;;;;5.05;4.55;;;;;;;16.88;47.90;103414.53;4880305;29;19939;-84
2023/01/25 11:09:21;;;;;;;5.45;4.57;;;;;;;16.89;47.70;103405.88;4883454;29;20054;-88
2023/01/25 11:12:01;;;;;;;5.32;4.63;;;;;;;16.92;47.97;103398.16;4887399;29;20071;-86
2023/01/25 11:14:29;;;;;;;5.15;4.65;;;;;;;16.91;47.79;103392.09;4887342;29;20033;-87
2023/01/25 11:16:57;;;;;;;5.60;4.97;;;;;;;16.90;47.68;103387.72;4887859;29;20049;-87
2023/01/25 11:19:39;;;;;;;5.43;4.93;;;;;;;16.91;48.07;103383.41;4887574;29;20038;-84
2023/01/25 11:22:23;;;;;;;5.25;4.75;;;;;;;16.91;47.68;103376.47;4887786;29;20128;-86
2023/01/25 11:24:48;;;;;;;;;;;;;;;16.90;47.63;103369.53;4888316;29;20038;-86
2023/01/25 11:27:19;;;;;;;5.85;4.90;;;;;;;16.91;47.74;103370.41;4887231;29;19987;-86
2023/01/25 11:30:05;;;;;;;6.32;5.32;;;;;;;16.90;47.77;103360.81;4885055;29;20048;-85
2023/01/25 11:32:32;;;;;;;5.90;4.93;;;;;;;16.90;47.89;103353.91;4875223;29;20089;-82
2023/01/25 11:34:58;;;;;;;6.00;5.20;;;;;;;16.91;47.70;103345.25;4876761;29;20485;-86
2023/01/25 11:37:34;;;;;;;8.45;5.70;;;;;;;16.92;47.66;103327.94;4872538;29;20064;-82
2023/01/25 11:40:17;;;;;;;6.03;5.07;;;;;;;16.93;47.63;103322.78;4873279;29;20037;-82
2023/01/25 11:43:01;;;;;;;5.55;5.05;;;;;;;16.94;47.78;103315.88;4882149;29;20045;-84
2023/01/25 11:46:02;;;;;;;6.55;5.63;;;;;;;16.95;47.64;103310.72;4883555;29;20037;-85